^^
MeteoGriva-Weather Station Historical Data
Daily Summary for October 01, 2020 Units:  Both    English   Metric
Daily Weekly Monthly Yearly Custom
  High: Low: Average:
Temperature: 74.1 °F /  23.4 °C 53.6 °F /  12 °C 62.6 °F /  17 °C
Dew Point: 58.6 °F /  14.8 °C 48.7 °F /  9.3 °C 53.1 °F /  11.7 °C
Humidity: 85.8% 55% 71%
Wind Speed: 4.5mph /  7.2km/h - 0.2mph /  0.3km/h
Wind Gust: 15mph /  24.1km/h - -
Wind- - SE
Pressure: 29.7 in /  1007.1 hPa 29.6 in /  1003.0 hPa -
Precipitation: 0 in /  0.0 mm    
Historical Graphs
 
 
Tabular Data for October 01, 2020
Time Temperature Dew Point Pressure Wind Wind Speed Wind Gust Humidity Rainfall Rate (Hourly) solar
00:04 57.9 °F /  14.4 °C 50.2 °F /  10.1 °C 29.7in /  1007.1hPa Calm     75.3% 0in /  0.0mm 0 W/m2
00:09 58.3 °F /  14.6 °C 50.2 °F /  10.1 °C 29.7in /  1007.1hPa Calm     74.6% 0in /  0.0mm 0 W/m2
00:14 58.3 °F /  14.6 °C 50.5 °F /  10.3 °C 29.7in /  1006.8hPa Calm     75.2% 0in /  0.0mm 0 W/m2
00:19 58.3 °F /  14.6 °C 50.4 °F /  10.2 °C 29.7in /  1006.8hPa Calm     75.2% 0in /  0.0mm 0 W/m2
00:24 58.3 °F /  14.6 °C 50.4 °F /  10.2 °C 29.7in /  1007.1hPa Calm     75.1% 0in /  0.0mm 0 W/m2
00:29 57.9 °F /  14.4 °C 50.4 °F /  10.2 °C 29.7in /  1007.1hPa Calm     76.1% 0in /  0.0mm 0 W/m2
00:34 57.7 °F /  14.3 °C 49.6 °F /  9.8 °C 29.7in /  1006.8hPa Calm     74.3% 0in /  0.0mm 0 W/m2
00:39 57.7 °F /  14.3 °C 49.5 °F /  9.7 °C 29.7in /  1006.8hPa Calm     73.7% 0in /  0.0mm 0 W/m2
00:44 57.9 °F /  14.4 °C 50 °F /  10 °C 29.7in /  1006.8hPa Calm     75.1% 0in /  0.0mm 0 W/m2
00:49 57.9 °F /  14.4 °C 50 °F /  10 °C 29.7in /  1006.8hPa Calm     75.3% 0in /  0.0mm 0 W/m2
00:54 57.7 °F /  14.3 °C 50 °F /  10 °C 29.7in /  1006.8hPa Calm     75.6% 0in /  0.0mm 0 W/m2
00:59 57.7 °F /  14.3 °C 49.8 °F /  9.9 °C 29.7in /  1006.8hPa Calm     75.1% 0in /  0.0mm 0 W/m2
01:04 57.7 °F /  14.3 °C 49.8 °F /  9.9 °C 29.7in /  1006.8hPa Calm     75% 0in /  0.0mm 0 W/m2
01:09 57.9 °F /  14.4 °C 49.6 °F /  9.8 °C 29.7in /  1006.4hPa Calm     73.9% 0in /  0.0mm 0 W/m2
01:14 58.3 °F /  14.6 °C 49.6 °F /  9.8 °C 29.7in /  1006.8hPa Calm     73.2% 0in /  0.0mm 0 W/m2
01:19 58.1 °F /  14.5 °C 49.8 °F /  9.9 °C 29.7in /  1006.4hPa Calm     74% 0in /  0.0mm 0 W/m2
01:24 57.9 °F /  14.4 °C 49.6 °F /  9.8 °C 29.7in /  1006.4hPa South 0.1mph /  0.2km/h 2.5mph /  4km/h 74% 0in /  0.0mm 0 W/m2
01:29 57.6 °F /  14.2 °C 49.5 °F /  9.7 °C 29.7in /  1006.4hPa Calm     74.8% 0in /  0.0mm 0 W/m2
01:34 56.8 °F /  13.8 °C 49.3 °F /  9.6 °C 29.7in /  1006.4hPa Calm     75.8% 0in /  0.0mm 0 W/m2
01:39 56.8 °F /  13.8 °C 49.1 °F /  9.5 °C 29.7in /  1006.4hPa Calm   2.5mph /  4km/h 75.4% 0in /  0.0mm 0 W/m2
01:44 56.8 °F /  13.8 °C 48.9 °F /  9.4 °C 29.7in /  1006.4hPa Calm     75.1% 0in /  0.0mm 0 W/m2
01:49 57 °F /  13.9 °C 49.1 °F /  9.5 °C 29.7in /  1006.4hPa Calm     75.3% 0in /  0.0mm 0 W/m2
01:54 57 °F /  13.9 °C 49.6 °F /  9.8 °C 29.7in /  1006.4hPa Calm     76.7% 0in /  0.0mm 0 W/m2
01:59 57 °F /  13.9 °C 49.8 °F /  9.9 °C 29.7in /  1006.4hPa SW 0.1mph /  0.2km/h 2.5mph /  4km/h 77% 0in /  0.0mm 0 W/m2
02:04 56.8 °F /  13.8 °C 49.5 °F /  9.7 °C 29.7in /  1006.1hPa WNW 0.2mph /  0.4km/h 2.5mph /  4km/h 76.7% 0in /  0.0mm 0 W/m2
02:09 57 °F /  13.9 °C 49.3 °F /  9.6 °C 29.7in /  1006.4hPa Calm     75.6% 0in /  0.0mm 0 W/m2
02:14 57.4 °F /  14.1 °C 49.1 °F /  9.5 °C 29.7in /  1006.1hPa Calm     74.3% 0in /  0.0mm 0 W/m2
02:19 57.4 °F /  14.1 °C 48.9 °F /  9.4 °C 29.7in /  1006.4hPa Calm     73.7% 0in /  0.0mm 0 W/m2
02:24 57.6 °F /  14.2 °C 48.7 °F /  9.3 °C 29.7in /  1006.4hPa Calm     72.6% 0in /  0.0mm 0 W/m2
02:29 57.6 °F /  14.2 °C 49.5 °F /  9.7 °C 29.7in /  1006.4hPa Calm     74.3% 0in /  0.0mm 0 W/m2
02:34 57.6 °F /  14.2 °C 49.3 °F /  9.6 °C 29.7in /  1006.1hPa Calm     73.7% 0in /  0.0mm 0 W/m2
02:39 57.6 °F /  14.2 °C 49.8 °F /  9.9 °C 29.7in /  1006.4hPa Calm     75.6% 0in /  0.0mm 0 W/m2
02:44 57.4 °F /  14.1 °C 50 °F /  10 °C 29.7in /  1006.4hPa Calm     76.2% 0in /  0.0mm 0 W/m2
02:49 56.8 °F /  13.8 °C 49.3 °F /  9.6 °C 29.7in /  1006.1hPa Calm     76% 0in /  0.0mm 0 W/m2
02:54 56.1 °F /  13.4 °C 48.9 °F /  9.4 °C 29.7in /  1006.1hPa Calm     76.8% 0in /  0.0mm 0 W/m2
02:59 56.1 °F /  13.4 °C 48.9 °F /  9.4 °C 29.7in /  1006.1hPa Calm     77.2% 0in /  0.0mm 0 W/m2
03:04 56.1 °F /  13.4 °C 49.3 °F /  9.6 °C 29.7in /  1006.1hPa Calm     77.9% 0in /  0.0mm 0 W/m2
03:09 56.3 °F /  13.5 °C 49.3 °F /  9.6 °C 29.7in /  1006.1hPa Calm     77.6% 0in /  0.0mm 0 W/m2
03:14 56.7 °F /  13.7 °C 49.1 °F /  9.5 °C 29.7in /  1006.1hPa Calm     76% 0in /  0.0mm 0 W/m2
03:19 56.7 °F /  13.7 °C 49.1 °F /  9.5 °C 29.7in /  1006.1hPa Calm     76% 0in /  0.0mm 0 W/m2
03:24 56.8 °F /  13.8 °C 49.3 °F /  9.6 °C 29.7in /  1006.1hPa Calm     76% 0in /  0.0mm 0 W/m2
03:29 57.2 °F /  14 °C 49.5 °F /  9.7 °C 29.7in /  1006.1hPa Calm     75.7% 0in /  0.0mm 0 W/m2
03:34 57.6 °F /  14.2 °C 50.2 °F /  10.1 °C 29.7in /  1006.1hPa Calm     76.6% 0in /  0.0mm 0 W/m2
03:39 57.6 °F /  14.2 °C 50.4 °F /  10.2 °C 29.7in /  1006.1hPa Calm     76.8% 0in /  0.0mm 0 W/m2
03:44 57.6 °F /  14.2 °C 50.2 °F /  10.1 °C 29.7in /  1006.1hPa Calm     76.8% 0in /  0.0mm 0 W/m2
03:49 57.4 °F /  14.1 °C 50.2 °F /  10.1 °C 29.7in /  1006.1hPa Calm     77.3% 0in /  0.0mm 0 W/m2
03:54 57.2 °F /  14 °C 50 °F /  10 °C 29.7in /  1005.8hPa Calm     77.3% 0in /  0.0mm 0 W/m2
03:59 57.2 °F /  14 °C 50.2 °F /  10.1 °C 29.7in /  1005.8hPa Calm     77.7% 0in /  0.0mm 0 W/m2
04:04 57 °F /  13.9 °C 50.4 °F /  10.2 °C 29.7in /  1006.1hPa Calm     78.3% 0in /  0.0mm 0 W/m2
04:09 57 °F /  13.9 °C 50.5 °F /  10.3 °C 29.7in /  1005.8hPa Calm     79.1% 0in /  0.0mm 0 W/m2
04:14 56.8 °F /  13.8 °C 50.2 °F /  10.1 °C 29.7in /  1005.8hPa Calm     78.4% 0in /  0.0mm 0 W/m2
04:19 56.8 °F /  13.8 °C 50.2 °F /  10.1 °C 29.7in /  1005.8hPa Calm     78.6% 0in /  0.0mm 0 W/m2
04:24 56.8 °F /  13.8 °C 50.2 °F /  10.1 °C 29.7in /  1005.8hPa Calm     78.3% 0in /  0.0mm 0 W/m2
04:29 56.8 °F /  13.8 °C 50.2 °F /  10.1 °C 29.7in /  1005.8hPa Calm     78.3% 0in /  0.0mm 0 W/m2
04:34 56.5 °F /  13.6 °C 50.2 °F /  10.1 °C 29.7in /  1005.8hPa Calm     79.4% 0in /  0.0mm 0 W/m2
04:39 56.5 °F /  13.6 °C 50.2 °F /  10.1 °C 29.7in /  1005.4hPa Calm     79.4% 0in /  0.0mm 0 W/m2
04:44 56.5 °F /  13.6 °C 50.4 °F /  10.2 °C 29.7in /  1005.4hPa Calm     80.1% 0in /  0.0mm 0 W/m2
04:49 56.7 °F /  13.7 °C 49.8 °F /  9.9 °C 29.7in /  1005.4hPa Calm     78.3% 0in /  0.0mm 0 W/m2
04:54 57.2 °F /  14 °C 50.5 °F /  10.3 °C 29.7in /  1005.4hPa Calm     78.7% 0in /  0.0mm 0 W/m2
04:59 57.2 °F /  14 °C 50.5 °F /  10.3 °C 29.7in /  1005.4hPa Calm     78.2% 0in /  0.0mm 0 W/m2
05:04 57.2 °F /  14 °C 50.5 °F /  10.3 °C 29.7in /  1005.4hPa Calm     78.6% 0in /  0.0mm 0 W/m2
05:09 57.2 °F /  14 °C 50.7 °F /  10.4 °C 29.7in /  1005.4hPa Calm     79.1% 0in /  0.0mm 0 W/m2
05:14 56.8 °F /  13.8 °C 50.5 °F /  10.3 °C 29.7in /  1005.4hPa Calm     79.6% 0in /  0.0mm 0 W/m2
05:19 56.8 °F /  13.8 °C 50.5 °F /  10.3 °C 29.7in /  1005.1hPa Calm     79.4% 0in /  0.0mm 0 W/m2
05:24 56.7 °F /  13.7 °C 50.7 °F /  10.4 °C 29.7in /  1005.1hPa Calm     80.3% 0in /  0.0mm 0 W/m2
05:29 56.7 °F /  13.7 °C 51.1 °F /  10.6 °C 29.7in /  1005.1hPa Calm     81.6% 0in /  0.0mm 0 W/m2
05:34 55.8 °F /  13.2 °C 50.2 °F /  10.1 °C 29.7in /  1005.1hPa Calm     81.3% 0in /  0.0mm 0 W/m2
05:39 55.8 °F /  13.2 °C 50 °F /  10 °C 29.7in /  1005.1hPa Calm     81% 0in /  0.0mm 0 W/m2
05:44 55.8 °F /  13.2 °C 50 °F /  10 °C 29.7in /  1005.1hPa Calm     81.2% 0in /  0.0mm 0 W/m2
05:49 55.8 °F /  13.2 °C 50 °F /  10 °C 29.7in /  1005.1hPa Calm     81% 0in /  0.0mm 0 W/m2
05:54 55.8 °F /  13.2 °C 49.8 °F /  9.9 °C 29.7in /  1004.7hPa Calm     80.6% 0in /  0.0mm 0 W/m2
05:59 55.8 °F /  13.2 °C 50 °F /  10 °C 29.7in /  1004.7hPa Calm     80.8% 0in /  0.0mm 0 W/m2
06:04 55.8 °F /  13.2 °C 50 °F /  10 °C 29.7in /  1004.7hPa Calm     81.2% 0in /  0.0mm 0 W/m2
06:09 55.8 °F /  13.2 °C 49.6 °F /  9.8 °C 29.7in /  1005.1hPa Calm     80.3% 0in /  0.0mm 0 W/m2
06:14 55.8 °F /  13.2 °C 50 °F /  10 °C 29.7in /  1005.1hPa Calm     80.9% 0in /  0.0mm 0 W/m2
06:19 55.8 °F /  13.2 °C 50 °F /  10 °C 29.7in /  1005.1hPa Calm     81.1% 0in /  0.0mm 0 W/m2
06:24 55.8 °F /  13.2 °C 49.8 °F /  9.9 °C 29.7in /  1005.1hPa Calm     80.4% 0in /  0.0mm 0 W/m2
06:29 55.8 °F /  13.2 °C 50.2 °F /  10.1 °C 29.7in /  1005.1hPa Calm     81.6% 0in /  0.0mm 0 W/m2
06:34 55.4 °F /  13 °C 49.8 °F /  9.9 °C 29.7in /  1005.1hPa Calm     81.8% 0in /  0.0mm 0 W/m2
06:39 55.4 °F /  13 °C 50 °F /  10 °C 29.7in /  1005.1hPa Calm     81.9% 0in /  0.0mm 0 W/m2
06:44 55.4 °F /  13 °C 49.8 °F /  9.9 °C 29.7in /  1005.1hPa Calm     81.6% 0in /  0.0mm 0 W/m2
06:49 55.4 °F /  13 °C 50 °F /  10 °C 29.7in /  1004.7hPa Calm     82% 0in /  0.0mm 0 W/m2
06:54 55 °F /  12.8 °C 50 °F /  10 °C 29.7in /  1004.7hPa Calm     82.7% 0in /  0.0mm 0 W/m2
06:59 55 °F /  12.8 °C 49.8 °F /  9.9 °C 29.7in /  1004.7hPa Calm     82.4% 0in /  0.0mm 0 W/m2
07:04 55 °F /  12.8 °C 49.8 °F /  9.9 °C 29.7in /  1004.7hPa Calm     82.7% 0in /  0.0mm 0 W/m2
07:09 54.9 °F /  12.7 °C 49.5 °F /  9.7 °C 29.7in /  1004.7hPa Calm     81.8% 0in /  0.0mm 0 W/m2
07:14 54.9 °F /  12.7 °C 49.5 °F /  9.7 °C 29.7in /  1004.7hPa Calm     82.2% 0in /  0.0mm 0 W/m2
07:19 54.7 °F /  12.6 °C 49.8 °F /  9.9 °C 29.7in /  1004.7hPa Calm     83.8% 0in /  0.0mm 0 W/m2
07:24 54.7 °F /  12.6 °C 48.9 °F /  9.4 °C 29.7in /  1005.1hPa NNW 1.7mph /  2.8km/h 4.9mph /  7.9km/h 81.1% 0in /  0.0mm 0 W/m2
07:29 54.9 °F /  12.7 °C 49.3 °F /  9.6 °C 29.7in /  1005.1hPa NW 2.2mph /  3.5km/h 4.9mph /  7.9km/h 81.6% 0in /  0.0mm 3 W/m2
07:34 54 °F /  12.2 °C 49.6 °F /  9.8 °C 29.7in /  1005.1hPa Calm   4.9mph /  7.9km/h 85.4% 0in /  0.0mm 7 W/m2
07:39 53.6 °F /  12 °C 49.5 °F /  9.7 °C 29.7in /  1005.4hPa WNW 0.1mph /  0.2km/h 4.9mph /  7.9km/h 85.8% 0in /  0.0mm 12 W/m2
07:44 53.8 °F /  12.1 °C 49.5 °F /  9.7 °C 29.7in /  1005.4hPa Calm   2.5mph /  4km/h 85.5% 0in /  0.0mm 20 W/m2
07:49 53.8 °F /  12.1 °C 49.5 °F /  9.7 °C 29.7in /  1005.4hPa Calm     84.7% 0in /  0.0mm 26 W/m2
07:54 54.9 °F /  12.7 °C 50.2 °F /  10.1 °C 29.7in /  1005.4hPa Calm     83.6% 0in /  0.0mm 32 W/m2
07:59 55.2 °F /  12.9 °C 49.8 °F /  9.9 °C 29.7in /  1005.4hPa Calm     81.9% 0in /  0.0mm 38 W/m2
08:04 55.6 °F /  13.1 °C 49.5 °F /  9.7 °C 29.7in /  1005.4hPa Calm     80% 0in /  0.0mm 44 W/m2
08:09 56.1 °F /  13.4 °C 49.5 °F /  9.7 °C 29.7in /  1005.4hPa Calm     78.3% 0in /  0.0mm 50 W/m2
08:14 57.2 °F /  14 °C 50.7 °F /  10.4 °C 29.7in /  1005.4hPa Calm     78.9% 0in /  0.0mm 55 W/m2
08:19 57.7 °F /  14.3 °C 50.2 °F /  10.1 °C 29.7in /  1005.4hPa Calm     75.8% 0in /  0.0mm 59 W/m2
08:24 58.1 °F /  14.5 °C 50.7 °F /  10.4 °C 29.7in /  1005.4hPa Calm     76.6% 0in /  0.0mm 64 W/m2
08:29 58.5 °F /  14.7 °C 50.5 °F /  10.3 °C 29.7in /  1005.4hPa Calm     75.4% 0in /  0.0mm 68 W/m2
08:34 58.5 °F /  14.7 °C 51.3 °F /  10.7 °C 29.7in /  1005.4hPa Calm     77% 0in /  0.0mm 71 W/m2
08:39 58.3 °F /  14.6 °C 51.3 °F /  10.7 °C 29.7in /  1005.4hPa Calm     77.4% 0in /  0.0mm 74 W/m2
08:44 58.3 °F /  14.6 °C 51.1 °F /  10.6 °C 29.7in /  1005.8hPa Calm     76.8% 0in /  0.0mm 77 W/m2
08:49 58.5 °F /  14.7 °C 50.5 °F /  10.3 °C 29.7in /  1005.8hPa Calm     74.9% 0in /  0.0mm 80 W/m2
08:54 60.6 °F /  15.9 °C 51.4 °F /  10.8 °C 29.7in /  1005.8hPa Calm     71.8% 0in /  0.0mm 82 W/m2
08:59 61.5 °F /  16.4 °C 51.6 °F /  10.9 °C 29.7in /  1005.8hPa Calm     70% 0in /  0.0mm 84 W/m2
09:04 61.7 °F /  16.5 °C 52.2 °F /  11.2 °C 29.7in /  1005.8hPa Calm     70.9% 0in /  0.0mm 85 W/m2
09:09 61.5 °F /  16.4 °C 53.6 °F /  12 °C 29.7in /  1005.8hPa Calm     74.8% 0in /  0.0mm 86 W/m2
09:14 60.4 °F /  15.8 °C 52.2 °F /  11.2 °C 29.7in /  1005.8hPa Calm     73.9% 0in /  0.0mm 87 W/m2
09:19 60.3 °F /  15.7 °C 52 °F /  11.1 °C 29.7in /  1005.8hPa Calm     74.1% 0in /  0.0mm 89 W/m2
09:24 60.3 °F /  15.7 °C 52.2 °F /  11.2 °C 29.7in /  1005.8hPa Calm     74.3% 0in /  0.0mm 91 W/m2
09:29 60.4 °F /  15.8 °C 52 °F /  11.1 °C 29.7in /  1005.8hPa Calm     73.3% 0in /  0.0mm 94 W/m2
09:34 61.7 °F /  16.5 °C 52.9 °F /  11.6 °C 29.7in /  1005.8hPa Calm     72.8% 0in /  0.0mm 97 W/m2
09:39 62.2 °F /  16.8 °C 53.4 °F /  11.9 °C 29.7in /  1005.8hPa Calm     73.2% 0in /  0.0mm 100 W/m2
09:44 62.2 °F /  16.8 °C 53.4 °F /  11.9 °C 29.7in /  1006.1hPa Calm     73.1% 0in /  0.0mm 104 W/m2
09:49 62.2 °F /  16.8 °C 53.1 °F /  11.7 °C 29.7in /  1006.1hPa ENE 0.1mph /  0.1km/h 2.5mph /  4km/h 72.1% 0in /  0.0mm 108 W/m2
09:54 61.5 °F /  16.4 °C 52.9 °F /  11.6 °C 29.7in /  1006.1hPa East 0.5mph /  0.8km/h 4.9mph /  7.9km/h 73.3% 0in /  0.0mm 112 W/m2
09:59 61.2 °F /  16.2 °C 52.5 °F /  11.4 °C 29.7in /  1006.1hPa Calm     73.4% 0in /  0.0mm 118 W/m2
10:04 61.3 °F /  16.3 °C 52 °F /  11.1 °C 29.7in /  1005.8hPa Calm     71.6% 0in /  0.0mm 123 W/m2
10:09 61.9 °F /  16.6 °C 52.2 °F /  11.2 °C 29.7in /  1006.1hPa Calm     70.4% 0in /  0.0mm 129 W/m2
10:14 62.4 °F /  16.9 °C 53.1 °F /  11.7 °C 29.7in /  1005.8hPa Calm     71.7% 0in /  0.0mm 134 W/m2
10:19 62.8 °F /  17.1 °C 52.9 °F /  11.6 °C 29.7in /  1005.8hPa Calm     70.2% 0in /  0.0mm 141 W/m2
10:24 63 °F /  17.2 °C 53.4 °F /  11.9 °C 29.7in /  1005.8hPa ENE 0.5mph /  0.8km/h 2.5mph /  4km/h 71.3% 0in /  0.0mm 147 W/m2
10:29 63.1 °F /  17.3 °C 53.4 °F /  11.9 °C 29.7in /  1005.8hPa East 0.2mph /  0.3km/h 2.5mph /  4km/h 70.3% 0in /  0.0mm 152 W/m2
10:34 64.4 °F /  18 °C 54.5 °F /  12.5 °C 29.7in /  1005.8hPa NNE 0.1mph /  0.1km/h 4.9mph /  7.9km/h 70% 0in /  0.0mm 159 W/m2
10:39 65.5 °F /  18.6 °C 55.8 °F /  13.2 °C 29.7in /  1005.8hPa Calm   2.5mph /  4km/h 71% 0in /  0.0mm 164 W/m2
10:44 65.3 °F /  18.5 °C 56.1 °F /  13.4 °C 29.7in /  1005.8hPa Calm     72.1% 0in /  0.0mm 171 W/m2
10:49 64.9 °F /  18.3 °C 55.6 °F /  13.1 °C 29.7in /  1005.8hPa ESE 0.1mph /  0.1km/h 2.5mph /  4km/h 71.2% 0in /  0.0mm 179 W/m2
10:54 66 °F /  18.9 °C 55.2 °F /  12.9 °C 29.7in /  1005.8hPa East 0.1mph /  0.1km/h 2.5mph /  4km/h 68.2% 0in /  0.0mm 188 W/m2
10:59 66.7 °F /  19.3 °C 56.3 °F /  13.5 °C 29.7in /  1005.8hPa Calm     69.1% 0in /  0.0mm 194 W/m2
11:04 66.4 °F /  19.1 °C 56.3 °F /  13.5 °C 29.7in /  1005.8hPa Calm   4.9mph /  7.9km/h 70.2% 0in /  0.0mm 202 W/m2
11:09 66 °F /  18.9 °C 55.8 °F /  13.2 °C 29.7in /  1005.8hPa Calm   4.9mph /  7.9km/h 69.4% 0in /  0.0mm 209 W/m2
11:14 65.5 °F /  18.6 °C 55.4 °F /  13 °C 29.7in /  1005.8hPa East 0.4mph /  0.6km/h 2.5mph /  4km/h 69.6% 0in /  0.0mm 218 W/m2
11:19 65.1 °F /  18.4 °C 54.3 °F /  12.4 °C 29.7in /  1005.8hPa SE 0.2mph /  0.3km/h 2.5mph /  4km/h 68.1% 0in /  0.0mm 227 W/m2
11:24 65.5 °F /  18.6 °C 54 °F /  12.2 °C 29.7in /  1005.8hPa Calm   2.5mph /  4km/h 66.4% 0in /  0.0mm 235 W/m2
11:29 65.8 °F /  18.8 °C 54.9 °F /  12.7 °C 29.7in /  1005.8hPa East 0.2mph /  0.4km/h 2.5mph /  4km/h 67.6% 0in /  0.0mm 244 W/m2
11:34 66.7 °F /  19.3 °C 55 °F /  12.8 °C 29.7in /  1005.8hPa ESE 0.2mph /  0.3km/h 2.5mph /  4km/h 65.9% 0in /  0.0mm 253 W/m2
11:39 68.2 °F /  20.1 °C 56.3 °F /  13.5 °C 29.7in /  1005.8hPa ESE 0.9mph /  1.5km/h 4.9mph /  7.9km/h 65.9% 0in /  0.0mm 267 W/m2
11:44 68 °F /  20 °C 56.3 °F /  13.5 °C 29.7in /  1005.8hPa SE 0.4mph /  0.6km/h 4.9mph /  7.9km/h 65.8% 0in /  0.0mm 270 W/m2
11:49 67.8 °F /  19.9 °C 55.9 °F /  13.3 °C 29.7in /  1005.8hPa South 0.4mph /  0.6km/h 4.9mph /  7.9km/h 65.4% 0in /  0.0mm 289 W/m2
11:54 68.4 °F /  20.2 °C 55.8 °F /  13.2 °C 29.7in /  1005.8hPa SSE 0.6mph /  0.9km/h 4.9mph /  7.9km/h 63.9% 0in /  0.0mm 293 W/m2
11:59 69.1 °F /  20.6 °C 56.8 °F /  13.8 °C 29.7in /  1005.8hPa East 0.2mph /  0.4km/h 4.9mph /  7.9km/h 65% 0in /  0.0mm 307 W/m2
12:04 68.9 °F /  20.5 °C 56.7 °F /  13.7 °C 29.7in /  1005.8hPa ESE 1.6mph /  2.5km/h 7.6mph /  12.2km/h 64.8% 0in /  0.0mm 314 W/m2
12:09 68.5 °F /  20.3 °C 56.8 °F /  13.8 °C 29.7in /  1005.4hPa East 0.2mph /  0.4km/h 7.6mph /  12.2km/h 66.1% 0in /  0.0mm 345 W/m2
12:14 68 °F /  20 °C 56.5 °F /  13.6 °C 29.7in /  1005.4hPa SSE 0.2mph /  0.3km/h 4.9mph /  7.9km/h 66.6% 0in /  0.0mm 358 W/m2
12:19 67.3 °F /  19.6 °C 55.2 °F /  12.9 °C 29.7in /  1005.4hPa SSE 0.2mph /  0.4km/h 4.9mph /  7.9km/h 65.3% 0in /  0.0mm 385 W/m2
12:24 67.3 °F /  19.6 °C 55.4 °F /  13 °C 29.7in /  1005.4hPa Calm     65.9% 0in /  0.0mm 395 W/m2
12:29 67.5 °F /  19.7 °C 55 °F /  12.8 °C 29.7in /  1005.4hPa ESE 0.1mph /  0.2km/h 2.5mph /  4km/h 64.4% 0in /  0.0mm 415 W/m2
12:34 67.6 °F /  19.8 °C 55.4 °F /  13 °C 29.7in /  1005.1hPa ESE 0.2mph /  0.4km/h 4.9mph /  7.9km/h 65% 0in /  0.0mm 419 W/m2
12:39 67.6 °F /  19.8 °C 55.6 °F /  13.1 °C 29.7in /  1005.4hPa SSE 0.4mph /  0.7km/h 4.9mph /  7.9km/h 65.4% 0in /  0.0mm 414 W/m2
12:44 67.6 °F /  19.8 °C 56.1 °F /  13.4 °C 29.7in /  1005.4hPa NNE 0.1mph /  0.1km/h 4.9mph /  7.9km/h 66.8% 0in /  0.0mm 428 W/m2
12:49 67.5 °F /  19.7 °C 56.7 °F /  13.7 °C 29.7in /  1005.1hPa ENE 0.3mph /  0.5km/h 4.9mph /  7.9km/h 68.4% 0in /  0.0mm 216 W/m2
12:54 66.4 °F /  19.1 °C 56.1 °F /  13.4 °C 29.7in /  1005.1hPa ENE 0.2mph /  0.4km/h 2.5mph /  4km/h 69.1% 0in /  0.0mm 461 W/m2
12:59 65.1 °F /  18.4 °C 54.5 °F /  12.5 °C 29.7in /  1005.1hPa SE 0.4mph /  0.6km/h 4.9mph /  7.9km/h 68.4% 0in /  0.0mm 450 W/m2
13:04 65.3 °F /  18.5 °C 54.5 °F /  12.5 °C 29.7in /  1005.4hPa SSE 0.7mph /  1.2km/h 4.9mph /  7.9km/h 67.9% 0in /  0.0mm 467 W/m2
13:09 65.5 °F /  18.6 °C 55.2 °F /  12.9 °C 29.7in /  1005.1hPa ENE 1.3mph /  2.1km/h 4.9mph /  7.9km/h 69.3% 0in /  0.0mm 478 W/m2
13:14 65.8 °F /  18.8 °C 55.4 °F /  13 °C 29.7in /  1004.7hPa ENE 0.7mph /  1.1km/h 7.6mph /  12.2km/h 69.2% 0in /  0.0mm 468 W/m2
13:19 67.1 °F /  19.5 °C 55.9 °F /  13.3 °C 29.7in /  1004.7hPa SE 0.6mph /  0.9km/h 4.9mph /  7.9km/h 67.3% 0in /  0.0mm 470 W/m2
13:24 67.3 °F /  19.6 °C 55.6 °F /  13.1 °C 29.7in /  1004.7hPa SE 0.8mph /  1.3km/h 7.6mph /  12.2km/h 66.1% 0in /  0.0mm 482 W/m2
13:29 67.5 °F /  19.7 °C 55.8 °F /  13.2 °C 29.7in /  1004.7hPa Calm   2.5mph /  4km/h 66.3% 0in /  0.0mm 484 W/m2
13:34 67.3 °F /  19.6 °C 56.3 °F /  13.5 °C 29.7in /  1004.7hPa East 0.5mph /  0.8km/h 7.6mph /  12.2km/h 67.8% 0in /  0.0mm 491 W/m2
13:39 66.7 °F /  19.3 °C 55.4 °F /  13 °C 29.7in /  1004.7hPa Calm   7.6mph /  12.2km/h 67.2% 0in /  0.0mm 484 W/m2
13:44 66.9 °F /  19.4 °C 55.9 °F /  13.3 °C 29.7in /  1004.7hPa ENE 1.4mph /  2.2km/h 7.6mph /  12.2km/h 68.1% 0in /  0.0mm 494 W/m2
13:49 67.1 °F /  19.5 °C 55.9 °F /  13.3 °C 29.7in /  1004.7hPa ENE 1.4mph /  2.3km/h 7.6mph /  12.2km/h 67.6% 0in /  0.0mm 516 W/m2
13:54 67.8 °F /  19.9 °C 55.9 °F /  13.3 °C 29.7in /  1004.4hPa SE 0.9mph /  1.4km/h 4.9mph /  7.9km/h 65.9% 0in /  0.0mm 504 W/m2
13:59 69.4 °F /  20.8 °C 57 °F /  13.9 °C 29.7in /  1004.4hPa SSE 0.9mph /  1.5km/h 4.9mph /  7.9km/h 64.4% 0in /  0.0mm 517 W/m2
14:04 69.6 °F /  20.9 °C 56.8 °F /  13.8 °C 29.7in /  1004.4hPa South 0.2mph /  0.3km/h 7.6mph /  12.2km/h 63.8% 0in /  0.0mm 561 W/m2
14:09 70 °F /  21.1 °C 56.8 °F /  13.8 °C 29.7in /  1004.1hPa SSE 1.6mph /  2.6km/h 7.6mph /  12.2km/h 63.1% 0in /  0.0mm 564 W/m2
14:14 70.2 °F /  21.2 °C 57.4 °F /  14.1 °C 29.7in /  1004.1hPa South 3.4mph /  5.4km/h 7.6mph /  12.2km/h 64% 0in /  0.0mm 247 W/m2
14:19 70 °F /  21.1 °C 57 °F /  13.9 °C 29.7in /  1004.1hPa SSW 0.7mph /  1.1km/h 4.9mph /  7.9km/h 63.4% 0in /  0.0mm 172 W/m2
14:24 70 °F /  21.1 °C 57 °F /  13.9 °C 29.7in /  1004.1hPa South 0.2mph /  0.3km/h 4.9mph /  7.9km/h 63.6% 0in /  0.0mm 166 W/m2
14:29 70 °F /  21.1 °C 57.2 °F /  14 °C 29.7in /  1004.1hPa SSE 1.6mph /  2.5km/h 4.9mph /  7.9km/h 63.8% 0in /  0.0mm 169 W/m2
14:34 70 °F /  21.1 °C 57 °F /  13.9 °C 29.7in /  1004.1hPa SSE 2.4mph /  3.8km/h 7.6mph /  12.2km/h 63.5% 0in /  0.0mm 163 W/m2
14:39 69.4 °F /  20.8 °C 56.8 °F /  13.8 °C 29.7in /  1004.1hPa SE 1.6mph /  2.5km/h 7.6mph /  12.2km/h 64.1% 0in /  0.0mm 150 W/m2
14:44 69.4 °F /  20.8 °C 57.4 °F /  14.1 °C 29.7in /  1004.1hPa Calm   4.9mph /  7.9km/h 65.7% 0in /  0.0mm 119 W/m2
14:49 69.3 °F /  20.7 °C 58.1 °F /  14.5 °C 29.7in /  1004.1hPa Calm     67.7% 0in /  0.0mm 110 W/m2
14:54 69.1 °F /  20.6 °C 57.6 °F /  14.2 °C 29.7in /  1004.1hPa SE 0.2mph /  0.3km/h 7.6mph /  12.2km/h 66.9% 0in /  0.0mm 122 W/m2
14:59 68.5 °F /  20.3 °C 57.2 °F /  14 °C 29.7in /  1004.1hPa Calm     67% 0in /  0.0mm 128 W/m2
15:04 68.5 °F /  20.3 °C 57 °F /  13.9 °C 29.7in /  1004.1hPa Calm     66.6% 0in /  0.0mm 146 W/m2
15:09 68.7 °F /  20.4 °C 57.2 °F /  14 °C 29.7in /  1004.1hPa Calm     66.9% 0in /  0.0mm 520 W/m2
15:14 68.9 °F /  20.5 °C 56.5 °F /  13.6 °C 29.7in /  1004.1hPa South 0.2mph /  0.4km/h 4.9mph /  7.9km/h 64.8% 0in /  0.0mm 520 W/m2
15:19 69.8 °F /  21 °C 57.2 °F /  14 °C 29.6in /  1003.7hPa SSE 1.1mph /  1.7km/h 4.9mph /  7.9km/h 64.2% 0in /  0.0mm 497 W/m2
15:24 70 °F /  21.1 °C 56.7 °F /  13.7 °C 29.6in /  1003.4hPa SSW 0.2mph /  0.3km/h 4.9mph /  7.9km/h 62.8% 0in /  0.0mm 500 W/m2
15:29 70.2 °F /  21.2 °C 56.5 °F /  13.6 °C 29.6in /  1003.4hPa SSE 0.4mph /  0.6km/h 4.9mph /  7.9km/h 61.6% 0in /  0.0mm 481 W/m2
15:34 70.7 °F /  21.5 °C 56.5 °F /  13.6 °C 29.6in /  1003.4hPa Calm   2.5mph /  4km/h 60.6% 0in /  0.0mm 452 W/m2
15:39 73 °F /  22.8 °C 58.1 °F /  14.5 °C 29.6in /  1003.7hPa SSE 0.1mph /  0.2km/h 2.5mph /  4km/h 59.4% 0in /  0.0mm 447 W/m2
15:44 73.2 °F /  22.9 °C 58.3 °F /  14.6 °C 29.6in /  1003.7hPa SE 0.2mph /  0.4km/h 7.6mph /  12.2km/h 59.6% 0in /  0.0mm 471 W/m2
15:49 73.4 °F /  23 °C 58.6 °F /  14.8 °C 29.6in /  1003.7hPa Calm     60% 0in /  0.0mm 475 W/m2
15:54 73.4 °F /  23 °C 58.5 °F /  14.7 °C 29.6in /  1003.4hPa SSE 1.1mph /  1.7km/h 4.9mph /  7.9km/h 59.8% 0in /  0.0mm 456 W/m2
15:59 73.2 °F /  22.9 °C 58.3 °F /  14.6 °C 29.6in /  1003.4hPa SSE 0.2mph /  0.4km/h 4.9mph /  7.9km/h 59.3% 0in /  0.0mm 428 W/m2
16:04 73.4 °F /  23 °C 57.6 °F /  14.2 °C 29.6in /  1003.4hPa SE 0.1mph /  0.2km/h 4.9mph /  7.9km/h 57.9% 0in /  0.0mm 493 W/m2
16:09 73.4 °F /  23 °C 57.6 °F /  14.2 °C 29.6in /  1003.4hPa South 0.8mph /  1.3km/h 7.6mph /  12.2km/h 57.6% 0in /  0.0mm 524 W/m2
16:14 73.8 °F /  23.2 °C 57 °F /  13.9 °C 29.6in /  1003.4hPa Calm   7.6mph /  12.2km/h 56.1% 0in /  0.0mm 536 W/m2
16:19 74.1 °F /  23.4 °C 57.7 °F /  14.3 °C 29.6in /  1003.4hPa Calm     56.9% 0in /  0.0mm 540 W/m2
16:24 74.1 °F /  23.4 °C 56.8 °F /  13.8 °C 29.6in /  1003.4hPa East 0.5mph /  0.8km/h 4.9mph /  7.9km/h 55% 0in /  0.0mm 156 W/m2
16:29 73.8 °F /  23.2 °C 57.9 °F /  14.4 °C 29.6in /  1003.4hPa Calm   2.5mph /  4km/h 57.6% 0in /  0.0mm 134 W/m2
16:34 73.2 °F /  22.9 °C 57 °F /  13.9 °C 29.6in /  1003.4hPa NE 1.3mph /  2.1km/h 7.6mph /  12.2km/h 57% 0in /  0.0mm 132 W/m2
16:39 70.7 °F /  21.5 °C 55.4 °F /  13 °C 29.6in /  1003.4hPa NE 0.3mph /  0.5km/h 4.9mph /  7.9km/h 58.2% 0in /  0.0mm 130 W/m2
16:44 70.3 °F /  21.3 °C 55 °F /  12.8 °C 29.6in /  1003.7hPa Calm   2.5mph /  4km/h 58.1% 0in /  0.0mm 121 W/m2
16:49 70.5 °F /  21.4 °C 55.2 °F /  12.9 °C 29.6in /  1003.4hPa Calm     58.4% 0in /  0.0mm 128 W/m2
16:54 70.5 °F /  21.4 °C 55.2 °F /  12.9 °C 29.6in /  1003.4hPa Calm   2.5mph /  4km/h 58.2% 0in /  0.0mm 125 W/m2
16:59 70.3 °F /  21.3 °C 54.7 °F /  12.6 °C 29.6in /  1003.4hPa North 0.1mph /  0.1km/h 2.5mph /  4km/h 57.6% 0in /  0.0mm 316 W/m2
17:04 70.3 °F /  21.3 °C 54.3 °F /  12.4 °C 29.6in /  1003.4hPa Calm     56.9% 0in /  0.0mm 137 W/m2
17:09 70.5 °F /  21.4 °C 54.5 °F /  12.5 °C 29.6in /  1003.4hPa Calm     57% 0in /  0.0mm 172 W/m2
17:14 70.7 °F /  21.5 °C 55.4 °F /  13 °C 29.6in /  1003.4hPa Calm     58.7% 0in /  0.0mm 274 W/m2
17:19 70.7 °F /  21.5 °C 55 °F /  12.8 °C 29.6in /  1003.4hPa Calm     57.6% 0in /  0.0mm 178 W/m2
17:24 70.7 °F /  21.5 °C 55 °F /  12.8 °C 29.6in /  1003.4hPa Calm     57.7% 0in /  0.0mm 106 W/m2
17:29 70.7 °F /  21.5 °C 54.7 °F /  12.6 °C 29.6in /  1003.4hPa Calm     56.9% 0in /  0.0mm 91 W/m2
17:34 70.9 °F /  21.6 °C 54.9 °F /  12.7 °C 29.6in /  1003.4hPa Calm     57.1% 0in /  0.0mm 68 W/m2
17:39 70.2 °F /  21.2 °C 55 °F /  12.8 °C 29.6in /  1003.0hPa South 0.2mph /  0.3km/h 4.9mph /  7.9km/h 58.8% 0in /  0.0mm 59 W/m2
17:44 69.8 °F /  21 °C 55.2 °F /  12.9 °C 29.6in /  1003.0hPa Calm     59.9% 0in /  0.0mm 53 W/m2
17:49 69.8 °F /  21 °C 54.9 °F /  12.7 °C 29.6in /  1003.4hPa Calm     59% 0in /  0.0mm 46 W/m2
17:54 69.6 °F /  20.9 °C 55.9 °F /  13.3 °C 29.6in /  1003.0hPa Calm     62.2% 0in /  0.0mm 46 W/m2
17:59 68.5 °F /  20.3 °C 55 °F /  12.8 °C 29.6in /  1003.0hPa Calm     62.6% 0in /  0.0mm 44 W/m2
18:04 68.2 °F /  20.1 °C 55.9 °F /  13.3 °C 29.6in /  1003.0hPa Calm     64.9% 0in /  0.0mm 42 W/m2
18:09 68 °F /  20 °C 56.5 °F /  13.6 °C 29.6in /  1003.4hPa Calm     66.2% 0in /  0.0mm 40 W/m2
18:14 67.8 °F /  19.9 °C 56.5 °F /  13.6 °C 29.6in /  1003.4hPa Calm     66.6% 0in /  0.0mm 37 W/m2
18:19 66.9 °F /  19.4 °C 56.1 °F /  13.4 °C 29.6in /  1003.4hPa Calm     68.6% 0in /  0.0mm 36 W/m2
18:24 66.6 °F /  19.2 °C 56.3 °F /  13.5 °C 29.6in /  1003.7hPa Calm     69.8% 0in /  0.0mm 34 W/m2
18:29 66.6 °F /  19.2 °C 56.1 °F /  13.4 °C 29.6in /  1003.7hPa Calm     69.1% 0in /  0.0mm 33 W/m2
18:34 66.4 °F /  19.1 °C 55.9 °F /  13.3 °C 29.6in /  1003.7hPa Calm     69.2% 0in /  0.0mm 27 W/m2
18:39 66.2 °F /  19 °C 55.9 °F /  13.3 °C 29.6in /  1003.7hPa Calm     69.8% 0in /  0.0mm 24 W/m2
18:44 66 °F /  18.9 °C 56.3 °F /  13.5 °C 29.6in /  1003.7hPa Calm     70.9% 0in /  0.0mm 20 W/m2
18:49 66 °F /  18.9 °C 55.6 °F /  13.1 °C 29.6in /  1003.7hPa Calm     69.1% 0in /  0.0mm 16 W/m2
18:54 66 °F /  18.9 °C 55.9 °F /  13.3 °C 29.6in /  1003.7hPa Calm   2.5mph /  4km/h 70% 0in /  0.0mm 11 W/m2
18:59 65.3 °F /  18.5 °C 56.1 °F /  13.4 °C 29.7in /  1004.1hPa South 0.2mph /  0.3km/h 4.9mph /  7.9km/h 71.8% 0in /  0.0mm 7 W/m2
19:04 64.9 °F /  18.3 °C 55.8 °F /  13.2 °C 29.7in /  1004.1hPa SSE 2.7mph /  4.4km/h 10.1mph /  16.3km/h 72.1% 0in /  0.0mm 5 W/m2
19:09 64.9 °F /  18.3 °C 55.8 °F /  13.2 °C 29.6in /  1003.7hPa South 4.5mph /  7.2km/h 15mph /  24.1km/h 72% 0in /  0.0mm 2 W/m2
19:14 64.9 °F /  18.3 °C 55.9 °F /  13.3 °C 29.7in /  1004.1hPa South 2mph /  3.2km/h 7.6mph /  12.2km/h 72.6% 0in /  0.0mm 0 W/m2
19:19 64.6 °F /  18.1 °C 55.8 °F /  13.2 °C 29.7in /  1004.1hPa Calm   4.9mph /  7.9km/h 73.1% 0in /  0.0mm 0 W/m2
19:24 64.4 °F /  18 °C 55.4 °F /  13 °C 29.7in /  1004.1hPa Calm     72.2% 0in /  0.0mm 0 W/m2
19:29 64.4 °F /  18 °C 55 °F /  12.8 °C 29.7in /  1004.1hPa Calm     71.6% 0in /  0.0mm 0 W/m2
19:34 64.4 °F /  18 °C 55.4 °F /  13 °C 29.7in /  1004.1hPa Calm     72.7% 0in /  0.0mm 0 W/m2
19:39 64.2 °F /  17.9 °C 55.6 °F /  13.1 °C 29.7in /  1004.1hPa Calm     73.3% 0in /  0.0mm 0 W/m2
19:44 64 °F /  17.8 °C 55.6 °F /  13.1 °C 29.7in /  1004.1hPa Calm     73.7% 0in /  0.0mm 0 W/m2
19:49 64 °F /  17.8 °C 55.8 °F /  13.2 °C 29.7in /  1004.1hPa Calm     74.8% 0in /  0.0mm 0 W/m2
19:54 63.9 °F /  17.7 °C 56.1 °F /  13.4 °C 29.7in /  1004.1hPa Calm     76% 0in /  0.0mm 0 W/m2
19:59 63.5 °F /  17.5 °C 55.8 °F /  13.2 °C 29.7in /  1004.1hPa Calm     76% 0in /  0.0mm 0 W/m2
20:04 63.1 °F /  17.3 °C 55 °F /  12.8 °C 29.7in /  1004.1hPa Calm     75.1% 0in /  0.0mm 0 W/m2
20:09 63.1 °F /  17.3 °C 55 °F /  12.8 °C 29.7in /  1004.4hPa Calm     75.5% 0in /  0.0mm 0 W/m2
20:14 63 °F /  17.2 °C 55.4 °F /  13 °C 29.7in /  1004.4hPa Calm     76.6% 0in /  0.0mm 0 W/m2
20:19 62.2 °F /  16.8 °C 55 °F /  12.8 °C 29.7in /  1004.4hPa Calm     77.2% 0in /  0.0mm 0 W/m2
20:24 61.9 °F /  16.6 °C 54.5 °F /  12.5 °C 29.7in /  1004.4hPa Calm     76.7% 0in /  0.0mm 0 W/m2
20:29 61.9 °F /  16.6 °C 54.5 °F /  12.5 °C 29.7in /  1004.4hPa Calm     76.7% 0in /  0.0mm 0 W/m2
20:34 61.7 °F /  16.5 °C 54.5 °F /  12.5 °C 29.7in /  1004.7hPa Calm     76.7% 0in /  0.0mm 0 W/m2
20:39 61.7 °F /  16.5 °C 54.3 °F /  12.4 °C 29.7in /  1004.7hPa Calm     76.4% 0in /  0.0mm 0 W/m2
20:44 61.7 °F /  16.5 °C 54 °F /  12.2 °C 29.7in /  1004.7hPa Calm     75.7% 0in /  0.0mm 0 W/m2
20:49 61.9 °F /  16.6 °C 53.8 °F /  12.1 °C 29.7in /  1004.7hPa Calm     75% 0in /  0.0mm 0 W/m2
20:54 61.9 °F /  16.6 °C 53.8 °F /  12.1 °C 29.7in /  1004.7hPa North 0.1mph /  0.1km/h 4.9mph /  7.9km/h 75% 0in /  0.0mm 0 W/m2
20:59 61.7 °F /  16.5 °C 53.8 °F /  12.1 °C 29.7in /  1005.1hPa Calm     75% 0in /  0.0mm 0 W/m2
21:04 61.5 °F /  16.4 °C 53.8 °F /  12.1 °C 29.7in /  1005.1hPa Calm     75.3% 0in /  0.0mm 0 W/m2
21:09 61.5 °F /  16.4 °C 54.3 °F /  12.4 °C 29.7in /  1005.4hPa Calm     76.8% 0in /  0.0mm 0 W/m2
21:14 61.3 °F /  16.3 °C 54.3 °F /  12.4 °C 29.7in /  1005.4hPa Calm     77% 0in /  0.0mm 0 W/m2
21:19 61.3 °F /  16.3 °C 53.8 °F /  12.1 °C 29.7in /  1005.4hPa Calm     76% 0in /  0.0mm 0 W/m2
21:24 61.2 °F /  16.2 °C 53.6 °F /  12 °C 29.7in /  1005.4hPa Calm     75.9% 0in /  0.0mm 0 W/m2
21:29 61.2 °F /  16.2 °C 53.1 °F /  11.7 °C 29.7in /  1005.8hPa Calm     74.6% 0in /  0.0mm 0 W/m2
21:34 61.2 °F /  16.2 °C 53.1 °F /  11.7 °C 29.7in /  1005.8hPa Calm     74.7% 0in /  0.0mm 0 W/m2
21:39 61.5 °F /  16.4 °C 52.3 °F /  11.3 °C 29.7in /  1006.1hPa Calm     71.9% 0in /  0.0mm 0 W/m2
21:44 62.1 °F /  16.7 °C 52.5 °F /  11.4 °C 29.7in /  1005.8hPa Calm     71% 0in /  0.0mm 0 W/m2
21:49 62.2 °F /  16.8 °C 51.6 °F /  10.9 °C 29.7in /  1005.8hPa Calm     68% 0in /  0.0mm 0 W/m2
21:54 62.2 °F /  16.8 °C 51.1 °F /  10.6 °C 29.7in /  1005.8hPa Calm   2.5mph /  4km/h 66.9% 0in /  0.0mm 0 W/m2
21:59 62.8 °F /  17.1 °C 51.4 °F /  10.8 °C 29.7in /  1006.1hPa Calm   2.5mph /  4km/h 66.6% 0in /  0.0mm 0 W/m2
22:04 63.1 °F /  17.3 °C 51.8 °F /  11 °C 29.7in /  1006.1hPa Calm     66.4% 0in /  0.0mm 0 W/m2
22:09 63 °F /  17.2 °C 52 °F /  11.1 °C 29.7in /  1006.1hPa Calm     67.7% 0in /  0.0mm 0 W/m2
22:14 63 °F /  17.2 °C 52 °F /  11.1 °C 29.7in /  1006.1hPa Calm     67.5% 0in /  0.0mm 0 W/m2
22:19 62.8 °F /  17.1 °C 51.8 °F /  11 °C 29.7in /  1006.1hPa Calm     67.4% 0in /  0.0mm 0 W/m2
22:24 62.6 °F /  17 °C 51.3 °F /  10.7 °C 29.7in /  1006.1hPa Calm   2.5mph /  4km/h 66.7% 0in /  0.0mm 0 W/m2
22:29 62.6 °F /  17 °C 51.8 °F /  11 °C 29.7in /  1006.4hPa Calm     67.7% 0in /  0.0mm 0 W/m2
22:34 62.8 °F /  17.1 °C 51.6 °F /  10.9 °C 29.7in /  1006.1hPa Calm     67.1% 0in /  0.0mm 0 W/m2
22:39 63 °F /  17.2 °C 51.6 °F /  10.9 °C 29.7in /  1006.4hPa Calm     66.3% 0in /  0.0mm 0 W/m2
22:44 63.1 °F /  17.3 °C 52 °F /  11.1 °C 29.7in /  1006.4hPa Calm   2.5mph /  4km/h 66.8% 0in /  0.0mm 0 W/m2
22:49 63.1 °F /  17.3 °C 51.8 °F /  11 °C 29.7in /  1006.4hPa Calm     66.4% 0in /  0.0mm 0 W/m2
22:54 63.3 °F /  17.4 °C 51.8 °F /  11 °C 29.7in /  1006.4hPa Calm     66% 0in /  0.0mm 0 W/m2
22:59 63.3 °F /  17.4 °C 52 °F /  11.1 °C 29.7in /  1006.4hPa Calm   2.5mph /  4km/h 66.2% 0in /  0.0mm 0 W/m2
23:04 63.3 °F /  17.4 °C 51.8 °F /  11 °C 29.7in /  1006.4hPa Calm     66% 0in /  0.0mm 0 W/m2
23:09 63.3 °F /  17.4 °C 51.8 °F /  11 °C 29.7in /  1006.4hPa Calm     66% 0in /  0.0mm 0 W/m2
23:14 63.3 °F /  17.4 °C 52 °F /  11.1 °C 29.7in /  1006.4hPa Calm     66.6% 0in /  0.0mm 0 W/m2
23:19 63.5 °F /  17.5 °C 51.8 °F /  11 °C 29.7in /  1006.4hPa Calm   2.5mph /  4km/h 65.9% 0in /  0.0mm 0 W/m2
23:24 63.9 °F /  17.7 °C 51.6 °F /  10.9 °C 29.7in /  1006.4hPa South 0.3mph /  0.5km/h 4.9mph /  7.9km/h 64.5% 0in /  0.0mm 0 W/m2
23:29 63.9 °F /  17.7 °C 51.4 °F /  10.8 °C 29.7in /  1006.4hPa Calm   2.5mph /  4km/h 64.1% 0in /  0.0mm 0 W/m2
23:34 63.9 °F /  17.7 °C 52 °F /  11.1 °C 29.7in /  1006.4hPa SSW 0.2mph /  0.3km/h 4.9mph /  7.9km/h 65.3% 0in /  0.0mm 0 W/m2
23:39 63.9 °F /  17.7 °C 52 °F /  11.1 °C 29.7in /  1006.4hPa Calm     65.6% 0in /  0.0mm 0 W/m2
23:44 62.8 °F /  17.1 °C 51.4 °F /  10.8 °C 29.7in /  1006.8hPa Calm     66.7% 0in /  0.0mm 0 W/m2
23:49 63 °F /  17.2 °C 51.1 °F /  10.6 °C 29.7in /  1006.8hPa North 1.4mph /  2.2km/h 7.6mph /  12.2km/h 65.2% 0in /  0.0mm 0 W/m2
23:54 63 °F /  17.2 °C 51.8 °F /  11 °C 29.7in /  1006.4hPa Calm   4.9mph /  7.9km/h 66.8% 0in /  0.0mm 0 W/m2
23:59 63 °F /  17.2 °C 52.2 °F /  11.2 °C 29.7in /  1006.4hPa Calm     68% 0in /  0.0mm 0 W/m2
Juneau County Weather
Compliments of Weather Underground - 2 mb